Airfield :
LOGIN :

Register | Disclaimer

   EN    FR    IT 

 










Legend :    VFR   Marginal VFR   IFR   Intensive IFR   Very Intensive IFR
Visi :
Ceiling :
>= 8 km
>= 3000ft
5 to 8 km
1000 to 3000 ft
1500m to 5 km
500 to 1000 ft
800 to 1500m
200 to 500 ft
< 800m
< 200 ft
Symbols :   Thunderstorms  Fog  Heavy snow  Heavy precipitations  Wind > 20 kt
SIGMETs :     Misc.  Thunderstorms  Icing  Turbulence  Mountain Waves  Volcanic Ashes






- Airport Elevation : 622 ft
- IATA code : BRS


EGGD - Bristol Int.

CURRENT METAR :
  • 011620Z AUTO 25013KT 9999 OVC039 08/05 Q1026

EXPIRED METARs :
  • 011550Z AUTO 25015KT 9999 OVC040 08/05 Q1026
  • 011520Z AUTO 25017KT 9999 OVC041 08/05 Q1026
  • 011450Z AUTO 26019KT 9999 FEW030 OVC039 08/05 Q1026
  • 011420Z AUTO 25013KT 9999 FEW020 OVC039 08/06 Q1026
  • 011350Z AUTO 25016KT 9999 FEW022 OVC042 08/05 Q1026

TAF TAF EGGD
Valid from the 01 at 12:00 until the 02 at 12:00 UTC


011103Z 0112/0212 26014KT 9999 SCT035
TEMPO 0112/0116 27017G27KT
PROB30
TEMPO 0116/0120 27017G27KT
TEMPO 0120/0203 BKN008
PROB30
TEMPO 0120/0203 BKN004
BECMG 0203/0206 BKN005
TEMPO 0203/0208 9000 BKN003
BECMG 0208/0211 SCT008 BKN030
ATIS : +44 1275 473 666



MET'MAP, your aeronautical weather chart ! - Copyright ORBIFLY December 2007 - Disclaimer

ORBIFLY MET'MAP TEAM :

Programming & Development : Alexandra Zaïnal
Original concept : Baudouin d'Aumeries
Technical & hardware support : Manuel Goepfert
Assistance : Marc-Olivier Méhu




SOURCES & CREDITS :

   NOAA